createdAt,value
2016-12-24T00:00:03.268Z,69.34
2016-12-24T00:00:31.016Z,69.05
2016-12-24T00:00:58.923Z,69.15
2016-12-24T00:01:26.698Z,69.15
2016-12-24T00:01:54.482Z,70.31
2016-12-24T00:02:22.346Z,70.4
2016-12-24T00:02:50.100Z,70.4
2016-12-24T00:03:17.900Z,70.11
2016-12-24T00:03:45.818Z,70.4
2016-12-24T00:04:13.596Z,69.82
2016-12-24T00:04:41.520Z,70.79
2016-12-24T00:05:09.273Z,69.92
2016-12-24T00:05:37.053Z,70.5
2016-12-24T00:06:04.824Z,70.7
2016-12-24T00:06:32.603Z,70.21
2016-12-24T00:07:00.357Z,70.5
2016-12-24T00:07:28.109Z,70.11
2016-12-24T00:07:55.881Z,70.98
2016-12-24T00:08:23.679Z,70.6
2016-12-24T00:08:51.623Z,71.28
2016-12-24T00:09:19.446Z,70.98
2016-12-24T00:09:47.229Z,70.31
2016-12-24T00:10:14.999Z,71.08
2016-12-24T00:10:42.785Z,71.18
2016-12-24T00:11:10.632Z,70.89
2016-12-24T00:11:38.432Z,70.5
2016-12-24T00:12:06.305Z,70.11
2016-12-24T00:12:34.059Z,70.6
2016-12-24T00:13:01.792Z,70.6
2016-12-24T00:13:29.587Z,70.79
2016-12-24T00:13:57.471Z,71.37
2016-12-24T00:14:25.282Z,70.89
2016-12-24T00:14:53.031Z,70.86
2016-12-24T00:15:20.736Z,70.86
2016-12-24T00:15:48.482Z,69.69
2016-12-24T00:16:16.260Z,70.08
2016-12-24T00:16:44.126Z,70.27
2016-12-24T00:17:11.896Z,70.66
2016-12-24T00:17:39.694Z,70.66
2016-12-24T00:18:07.498Z,70.95
2016-12-24T00:18:35.332Z,71.44
2016-12-24T00:19:03.398Z,72.21
2016-12-24T00:19:31.251Z,73.18
2016-12-24T00:19:59.001Z,73.27
2016-12-24T00:20:26.881Z,72.89
2016-12-24T00:20:54.639Z,72.21
2016-12-24T00:21:22.445Z,73.18
2016-12-24T00:21:50.249Z,71.92
2016-12-24T00:22:18.058Z,72.08
2016-12-24T00:22:45.822Z,72.17
2016-12-24T00:23:13.632Z,71.4
2016-12-24T00:23:41.371Z,71.5
2016-12-24T00:24:09.210Z,71.2
2016-12-24T00:24:37.092Z,71.78
2016-12-24T00:25:04.856Z,70.92
2016-12-24T00:25:32.631Z,72.66
2016-12-24T00:26:00.398Z,72.66
2016-12-24T00:26:28.221Z,72.27
2016-12-24T00:26:56.019Z,72.08
2016-12-24T00:27:23.821Z,72.36
2016-12-24T00:27:51.583Z,73.63
2016-12-24T00:28:19.287Z,73.82
2016-12-24T00:28:47.094Z,72.85
2016-12-24T00:29:15.105Z,72.66
2016-12-24T00:29:42.899Z,73.04
2016-12-24T00:30:10.654Z,72.66
2016-12-24T00:30:38.414Z,71.98
2016-12-24T00:31:06.182Z,73.24
2016-12-24T00:31:33.982Z,72.85
2016-12-24T00:32:01.800Z,72.85
2016-12-24T00:32:29.584Z,72.95
2016-12-24T00:32:57.357Z,72.85
2016-12-24T00:33:25.149Z,72.08
2016-12-24T00:33:52.926Z,72.95
2016-12-24T00:34:20.852Z,72.75
2016-12-24T00:34:48.625Z,73.24
2016-12-24T00:35:16.386Z,73.43
2016-12-24T00:35:44.144Z,72.56
2016-12-24T00:36:11.943Z,72.85
2016-12-24T00:36:39.738Z,72.27
2016-12-24T00:37:07.545Z,71.4
2016-12-24T00:37:35.313Z,72.66
2016-12-24T00:38:03.098Z,73.82
2016-12-24T00:38:30.895Z,73.82
2016-12-24T00:38:58.707Z,74.3
2016-12-24T00:39:26.715Z,73.33
2016-12-24T00:39:54.530Z,72.46
2016-12-24T00:40:22.314Z,72.27
2016-12-24T00:40:50.062Z,72.36
2016-12-24T00:41:17.808Z,72.85
2016-12-24T00:41:45.543Z,73.14
2016-12-24T00:42:13.354Z,74.11
2016-12-24T00:42:41.162Z,73.72
2016-12-24T00:43:08.928Z,73.53
2016-12-24T00:43:36.692Z,72.95
2016-12-24T00:44:04.557Z,74.4
2016-12-24T00:44:32.416Z,74.3
2016-12-24T00:45:00.187Z,73.82
2016-12-24T00:45:28.027Z,73.43
2016-12-24T00:45:55.796Z,72.17
2016-12-24T00:46:23.562Z,71.69
2016-12-24T00:46:51.294Z,72.75
2016-12-24T00:47:19.097Z,73.72
2016-12-24T00:47:46.890Z,72.66
2016-12-24T00:48:14.722Z,72.85
2016-12-24T00:48:42.524Z,73.14
2016-12-24T00:49:10.352Z,72.66
2016-12-24T00:49:38.324Z,72.89
2016-12-24T00:50:06.059Z,73.95
2016-12-24T00:50:33.803Z,72.95
2016-12-24T00:51:01.611Z,73.63
2016-12-24T00:51:29.423Z,72.46
2016-12-24T00:51:57.170Z,73.14
2016-12-24T00:52:24.959Z,73.24
2016-12-24T00:52:52.875Z,75.75
2016-12-24T00:53:20.657Z,75.65
2016-12-24T00:53:48.557Z,75.37
2016-12-24T00:54:16.351Z,74.01
2016-12-24T00:54:44.340Z,73.66
2016-12-24T00:55:12.095Z,73.72
2016-12-24T00:55:39.848Z,73.82
2016-12-24T00:56:07.629Z,74.3
2016-12-24T00:56:35.383Z,74.3
2016-12-24T00:57:03.202Z,75.46
2016-12-24T00:57:30.996Z,75.17
2016-12-24T00:57:58.827Z,75.17
2016-12-24T00:58:26.608Z,74.69
2016-12-24T00:58:54.435Z,75.46
2016-12-24T00:59:22.194Z,75.95
2016-12-24T00:59:50.072Z,75.17
2016-12-24T01:00:18.026Z,75.37
2016-12-24T01:00:45.787Z,75.07
2016-12-24T01:01:13.568Z,76.68
2016-12-24T01:01:41.358Z,75.91
2016-12-24T01:02:09.169Z,76.43
2016-12-24T01:02:36.944Z,76.33
2016-12-24T01:03:04.721Z,76.72
2016-12-24T01:03:32.454Z,76.59
2016-12-24T01:04:00.248Z,76.33
2016-12-24T01:04:28.227Z,77.4
2016-12-24T01:04:55.980Z,76.24
2016-12-24T01:05:23.772Z,75.81
2016-12-24T01:05:51.624Z,75.62
2016-12-24T01:06:19.486Z,76.62
2016-12-24T01:06:47.265Z,76.43
2016-12-24T01:07:15.062Z,75.91
2016-12-24T01:07:42.864Z,75.62
2016-12-24T01:08:10.607Z,76.29
2016-12-24T01:08:38.362Z,77.45
2016-12-24T01:09:06.132Z,76.68
2016-12-24T01:09:34.120Z,76.68
2016-12-24T01:10:02.013Z,76.1
2016-12-24T01:10:29.762Z,77.07
2016-12-24T01:10:57.515Z,77.17
2016-12-24T01:11:25.376Z,76.29
2016-12-24T01:11:53.130Z,76.01
2016-12-24T01:12:20.922Z,75.29
2016-12-24T01:12:48.687Z,76.26
2016-12-24T01:13:16.462Z,76.49
2016-12-24T01:13:44.239Z,76.55
2016-12-24T01:14:12.047Z,76.06
2016-12-24T01:14:40.045Z,75.97
2016-12-24T01:15:07.930Z,76.74
2016-12-24T01:15:35.712Z,77.03
2016-12-24T01:16:03.522Z,76.87
2016-12-24T01:16:31.362Z,76.68
2016-12-24T01:16:59.156Z,76.39
2016-12-24T01:17:26.902Z,76.68
2016-12-24T01:17:54.716Z,75.58
2016-12-24T01:18:22.527Z,76.01
2016-12-24T01:18:50.329Z,75.97
2016-12-24T01:19:18.114Z,75.87
2016-12-24T01:19:46.085Z,75.71
2016-12-24T01:20:13.892Z,76.1
2016-12-24T01:20:41.824Z,75.71
2016-12-24T01:21:09.637Z,76.01
2016-12-24T01:21:37.416Z,75.81
2016-12-24T01:22:05.212Z,75.33
2016-12-24T01:22:33.010Z,74.85
2016-12-24T01:23:00.835Z,74.27
2016-12-24T01:23:28.606Z,74.07
2016-12-24T01:23:56.356Z,75.04
2016-12-24T01:24:24.154Z,76.1
2016-12-24T01:24:52.096Z,76.2
2016-12-24T01:25:19.866Z,76.2
2016-12-24T01:25:47.607Z,76.29
2016-12-24T01:26:15.392Z,75.52
2016-12-24T01:26:43.180Z,75.81
2016-12-24T01:27:10.950Z,74.94
2016-12-24T01:27:38.746Z,74.65
2016-12-24T01:28:06.536Z,74.85
2016-12-24T01:28:34.304Z,75.52
2016-12-24T01:29:02.130Z,75.91
2016-12-24T01:29:29.913Z,75.52
2016-12-24T01:29:57.868Z,75.43
2016-12-24T01:30:25.698Z,75.62
2016-12-24T01:30:53.475Z,75.04
2016-12-24T01:31:21.260Z,75.04
2016-12-24T01:31:49.054Z,74.75
2016-12-24T01:32:16.847Z,75.33
2016-12-24T01:32:44.601Z,74.88
2016-12-24T01:33:12.410Z,74.55
2016-12-24T01:33:40.186Z,74.94
2016-12-24T01:34:08.073Z,75.13
2016-12-24T01:34:35.848Z,74.98
2016-12-24T01:35:03.826Z,74.88
2016-12-24T01:35:31.599Z,75.07
2016-12-24T01:35:59.399Z,74.69
2016-12-24T01:36:27.201Z,74.69
2016-12-24T01:36:54.989Z,74.88
2016-12-24T01:37:22.746Z,74.01
2016-12-24T01:37:50.563Z,73.53
2016-12-24T01:38:18.368Z,74.4
2016-12-24T01:38:46.186Z,74.01
2016-12-24T01:39:13.946Z,74.59
2016-12-24T01:39:41.707Z,75.07
2016-12-24T01:40:09.657Z,75.95
2016-12-24T01:40:37.448Z,75.17
2016-12-24T01:41:05.334Z,74.21
2016-12-24T01:41:33.129Z,74.88
2016-12-24T01:42:00.926Z,75.07
2016-12-24T01:42:28.667Z,74.98
2016-12-24T01:42:56.417Z,75.75
2016-12-24T01:43:24.192Z,75.75
2016-12-24T01:43:51.998Z,75.56
2016-12-24T01:44:19.772Z,75.17
2016-12-24T01:44:47.556Z,75.17
2016-12-24T01:45:15.421Z,75.07
2016-12-24T01:45:43.187Z,74.3
2016-12-24T01:46:10.945Z,74.79
2016-12-24T01:46:38.715Z,75.95
2016-12-24T01:47:06.485Z,76.91
2016-12-24T01:47:34.298Z,76.91
2016-12-24T01:48:02.118Z,76.43
2016-12-24T01:48:29.949Z,76.53
2016-12-24T01:48:57.712Z,75.95
2016-12-24T01:49:25.564Z,75.91
2016-12-24T01:49:53.316Z,76.01
2016-12-24T01:50:21.200Z,76.33
2016-12-24T01:50:49.001Z,76.24
2016-12-24T01:51:16.825Z,75.33
2016-12-24T01:51:44.606Z,75.27
2016-12-24T01:52:12.383Z,75.95
2016-12-24T01:52:40.281Z,75.91
2016-12-24T01:53:08.179Z,75.27
2016-12-24T01:53:35.947Z,74.88
2016-12-24T01:54:03.768Z,77.01
2016-12-24T01:54:31.521Z,78.13
2016-12-24T01:54:59.377Z,77.75
2016-12-24T01:55:27.253Z,76.29
2016-12-24T01:55:55.030Z,77.17
2016-12-24T01:56:22.783Z,77.65
2016-12-24T01:56:50.610Z,77.75
2016-12-24T01:57:18.372Z,77.26
2016-12-24T01:57:46.145Z,76.87
2016-12-24T01:58:13.919Z,77.36
2016-12-24T01:58:41.705Z,78.03
2016-12-24T01:59:09.445Z,77.65
2016-12-24T01:59:37.220Z,78.13
2016-12-24T02:00:04.981Z,77.07
2016-12-24T02:00:32.967Z,76.78
2016-12-24T02:01:00.854Z,76.78
2016-12-24T02:01:28.736Z,77.65
2016-12-24T02:01:56.544Z,78.61
2016-12-24T02:02:24.348Z,78.61
2016-12-24T02:02:52.131Z,77.75
2016-12-24T02:03:19.970Z,77.75
2016-12-24T02:03:47.743Z,77.98
2016-12-24T02:04:15.727Z,77.94
2016-12-24T02:04:43.475Z,77.3
2016-12-24T02:05:11.281Z,77.69
2016-12-24T02:05:39.276Z,77.2
2016-12-24T02:06:07.152Z,76.91
2016-12-24T02:06:34.963Z,77.98
2016-12-24T02:07:02.796Z,77.2
2016-12-24T02:07:30.579Z,76.91
2016-12-24T02:07:58.325Z,77.01
2016-12-24T02:08:26.085Z,77.01
2016-12-24T02:08:53.892Z,76.82
2016-12-24T02:09:21.688Z,77.11
2016-12-24T02:09:49.531Z,77.11
2016-12-24T02:10:17.316Z,77.59
2016-12-24T02:10:45.270Z,77.01
2016-12-24T02:11:13.058Z,76.82
2016-12-24T02:11:40.913Z,77.01
2016-12-24T02:12:08.729Z,76.43
2016-12-24T02:12:36.514Z,77.01
2016-12-24T02:13:04.304Z,77.11
2016-12-24T02:13:32.035Z,77.11
2016-12-24T02:13:59.855Z,77.3
2016-12-24T02:14:27.672Z,77.88
2016-12-24T02:14:55.485Z,77.5
2016-12-24T02:15:23.265Z,77.78
2016-12-24T02:15:51.244Z,77.59
2016-12-24T02:16:19.060Z,78.08
2016-12-24T02:16:46.940Z,77.69
2016-12-24T02:17:14.719Z,77.2
2016-12-24T02:17:42.480Z,77.07
2016-12-24T02:18:10.263Z,77.78
2016-12-24T02:18:38.154Z,77.5
2016-12-24T02:19:05.922Z,77.88
2016-12-24T02:19:33.686Z,77.94
2016-12-24T02:20:01.485Z,77.94
2016-12-24T02:20:29.280Z,78.13
2016-12-24T02:20:57.125Z,78.71
2016-12-24T02:21:24.864Z,77.94
2016-12-24T02:21:52.723Z,77.55
2016-12-24T02:22:20.476Z,77.94
2016-12-24T02:22:48.243Z,77.84
2016-12-24T02:23:16.002Z,78.81
2016-12-24T02:23:43.769Z,78.61
2016-12-24T02:24:11.499Z,79.49
2016-12-24T02:24:39.349Z,79
2016-12-24T02:25:07.136Z,78.91
2016-12-24T02:25:34.916Z,79.39
2016-12-24T02:26:07.379Z,77.94
2016-12-24T02:26:35.190Z,77.17
2016-12-24T02:27:02.924Z,78.03
2016-12-24T02:27:30.691Z,79.2
2016-12-24T02:27:58.474Z,77.55
2016-12-24T02:28:26.247Z,76.59
2016-12-24T02:28:54.037Z,76.49
2016-12-24T02:29:21.834Z,77.45
2016-12-24T02:29:49.599Z,77.84
2016-12-24T02:30:17.378Z,78.33
2016-12-24T02:30:45.159Z,79.2
2016-12-24T02:31:13.085Z,78.61
2016-12-24T02:31:40.900Z,78.13
2016-12-24T02:32:08.701Z,78.91
2016-12-24T02:32:36.495Z,78.03
2016-12-24T02:33:04.297Z,77.84
2016-12-24T02:33:32.049Z,77.94
2016-12-24T02:33:59.858Z,79.39
2016-12-24T02:34:27.643Z,78.81
2016-12-24T02:34:55.434Z,78.03
2016-12-24T02:35:23.177Z,77.75
2016-12-24T02:35:50.904Z,78.23
2016-12-24T02:36:18.764Z,78.52
2016-12-24T02:36:46.555Z,77.94
2016-12-24T02:37:14.372Z,77.94
2016-12-24T02:37:42.167Z,77.75
2016-12-24T02:38:09.933Z,77.84
2016-12-24T02:38:37.675Z,78.13
2016-12-24T02:39:05.478Z,78.03
2016-12-24T02:39:33.229Z,77.84
2016-12-24T02:40:01.005Z,77.84
2016-12-24T02:40:28.759Z,77.94
2016-12-24T02:40:56.609Z,77.75
2016-12-24T02:41:24.555Z,77.94
2016-12-24T02:41:52.418Z,78.81
2016-12-24T02:42:20.170Z,78.52
2016-12-24T02:42:47.958Z,78.81
2016-12-24T02:43:15.823Z,78.91
2016-12-24T02:43:43.589Z,79.2
2016-12-24T02:44:11.389Z,79.29
2016-12-24T02:44:39.188Z,79.49
2016-12-24T02:45:06.990Z,79.2
2016-12-24T02:45:34.903Z,79
2016-12-24T02:46:02.713Z,79.49
2016-12-24T02:46:30.622Z,79.39
2016-12-24T02:46:58.401Z,79.49
2016-12-24T02:47:26.204Z,79.78
2016-12-24T02:47:53.971Z,79
2016-12-24T02:48:21.748Z,79.2
2016-12-24T02:48:49.571Z,79.97
2016-12-24T02:49:17.344Z,79.58
2016-12-24T02:49:45.106Z,79.97
2016-12-24T02:50:12.915Z,79.87
2016-12-24T02:50:40.709Z,79.87
2016-12-24T02:51:08.471Z,79.87
2016-12-24T02:51:36.388Z,79.58
2016-12-24T02:52:04.183Z,79
2016-12-24T02:52:31.972Z,79.39
2016-12-24T02:52:59.751Z,79.49
2016-12-24T02:53:27.513Z,79.24
2016-12-24T02:53:55.283Z,79.1
2016-12-24T02:54:23.054Z,79.2
2016-12-24T02:54:50.838Z,79.78
2016-12-24T02:55:18.611Z,79.58
2016-12-24T02:55:46.486Z,79.29
2016-12-24T02:56:14.282Z,79.2
2016-12-24T02:56:42.337Z,78.81
2016-12-24T02:57:10.106Z,79
2016-12-24T02:57:37.920Z,79.2
2016-12-24T02:58:05.716Z,79.39
2016-12-24T02:58:33.520Z,79.97
2016-12-24T02:59:01.317Z,79.97
2016-12-24T02:59:29.112Z,79.87
2016-12-24T02:59:56.941Z,79.39
2016-12-24T03:00:24.712Z,78.91
2016-12-24T03:00:52.483Z,79.1
2016-12-24T03:01:20.443Z,78.71
2016-12-24T03:01:48.208Z,79
2016-12-24T03:02:15.983Z,79.39
2016-12-24T03:02:43.734Z,78.81
2016-12-24T03:03:11.544Z,79.49
2016-12-24T03:03:39.292Z,80.03
2016-12-24T03:04:07.062Z,79.68
2016-12-24T03:04:34.890Z,79.25
2016-12-24T03:05:02.676Z,78.87
2016-12-24T03:05:30.471Z,78.96
2016-12-24T03:05:58.289Z,79.35
2016-12-24T03:06:26.315Z,79.16
2016-12-24T03:06:54.174Z,79.54
2016-12-24T03:07:22.025Z,79.45
2016-12-24T03:07:49.827Z,79.25
2016-12-24T03:08:17.580Z,79.16
2016-12-24T03:08:45.451Z,79.74
2016-12-24T03:09:13.229Z,79.74
2016-12-24T03:09:41.019Z,79.74
2016-12-24T03:10:08.814Z,79.35
2016-12-24T03:10:36.615Z,78.48
2016-12-24T03:11:04.436Z,79.93
2016-12-24T03:11:32.379Z,79.83
2016-12-24T03:12:00.227Z,80.9
2016-12-24T03:12:27.998Z,80.8
2016-12-24T03:12:55.767Z,80.51
2016-12-24T03:13:23.604Z,80.8
2016-12-24T03:13:51.467Z,80.22
2016-12-24T03:14:19.283Z,79.45
2016-12-24T03:14:47.057Z,80.61
2016-12-24T03:15:14.840Z,79.5
2016-12-24T03:15:42.622Z,79.83
2016-12-24T03:16:10.446Z,80.18
2016-12-24T03:16:38.344Z,79.7
2016-12-24T03:17:06.128Z,79.5
2016-12-24T03:17:33.935Z,80.38
2016-12-24T03:18:01.705Z,81.05
2016-12-24T03:18:29.499Z,80.95
2016-12-24T03:18:57.241Z,79.5
2016-12-24T03:19:24.976Z,79.7
2016-12-24T03:19:52.748Z,79.8
2016-12-24T03:20:20.524Z,79.99
2016-12-24T03:20:48.307Z,79.6
2016-12-24T03:21:16.091Z,79.5
2016-12-24T03:21:44.030Z,80.38
2016-12-24T03:22:11.848Z,80.76
2016-12-24T03:22:39.634Z,80.57
2016-12-24T03:23:07.378Z,80.57
2016-12-24T03:23:35.150Z,80.38
2016-12-24T03:24:02.912Z,79.5
2016-12-24T03:24:30.694Z,79.02
2016-12-24T03:24:58.439Z,78.44
2016-12-24T03:25:26.236Z,79.31
2016-12-24T03:25:54.093Z,79.5
2016-12-24T03:26:21.924Z,79.8
2016-12-24T03:26:49.869Z,78.83
2016-12-24T03:27:17.695Z,78.83
2016-12-24T03:27:45.474Z,78.92
2016-12-24T03:28:13.245Z,78.64
2016-12-24T03:28:41.105Z,79.41
2016-12-24T03:29:08.856Z,79.31
2016-12-24T03:29:36.602Z,79.83
2016-12-24T03:30:04.353Z,80.38
2016-12-24T03:30:32.096Z,80.28
2016-12-24T03:30:59.877Z,79.5
2016-12-24T03:31:27.678Z,79.12
2016-12-24T03:31:55.540Z,78.73
2016-12-24T03:32:23.309Z,79.6
2016-12-24T03:32:51.071Z,79.89
2016-12-24T03:33:18.820Z,79.41
2016-12-24T03:33:46.579Z,79.54
2016-12-24T03:34:14.355Z,79.41
2016-12-24T03:34:42.320Z,79.54
2016-12-24T03:35:10.093Z,80.41
2016-12-24T03:35:37.866Z,79.45
2016-12-24T03:36:05.675Z,79.93
2016-12-24T03:36:33.471Z,79.64
2016-12-24T03:37:01.360Z,78.67
2016-12-24T03:37:29.138Z,78
2016-12-24T03:37:56.900Z,78
2016-12-24T03:38:24.712Z,77.57
2016-12-24T03:38:52.505Z,78.58
2016-12-24T03:39:20.283Z,79.06
2016-12-24T03:39:48.059Z,78.77
2016-12-24T03:40:15.845Z,77.9
2016-12-24T03:40:43.651Z,78.96
2016-12-24T03:41:11.415Z,78.58
2016-12-24T03:41:39.208Z,77.71
2016-12-24T03:42:07.061Z,77.8
2016-12-24T03:42:34.830Z,78
2016-12-24T03:43:02.618Z,78.09
2016-12-24T03:43:30.353Z,77.71
2016-12-24T03:43:58.118Z,77.61
2016-12-24T03:44:25.882Z,77.9
2016-12-24T03:44:53.748Z,77.42
2016-12-24T03:45:21.491Z,77.51
2016-12-24T03:45:49.280Z,77.32
2016-12-24T03:46:17.047Z,77.42
2016-12-24T03:46:44.911Z,76.93
2016-12-24T03:47:12.882Z,77.51
2016-12-24T03:47:40.664Z,76.74
2016-12-24T03:48:08.511Z,76.26
2016-12-24T03:48:36.265Z,76.55
2016-12-24T03:49:04.048Z,76.55
2016-12-24T03:49:31.795Z,76.26
2016-12-24T03:49:59.597Z,76.84
2016-12-24T03:50:27.326Z,76.35
2016-12-24T03:50:55.125Z,76.26
2016-12-24T03:51:22.871Z,76.45
2016-12-24T03:51:50.609Z,77.03
2016-12-24T03:52:18.585Z,76.2
2016-12-24T03:52:46.369Z,76.16
2016-12-24T03:53:14.207Z,76.16
2016-12-24T03:53:42.005Z,76.64
2016-12-24T03:54:09.762Z,76.35
2016-12-24T03:54:37.494Z,76.45
2016-12-24T03:55:05.299Z,76.45
2016-12-24T03:55:33.104Z,75.58
2016-12-24T03:56:00.893Z,75.87
2016-12-24T03:56:28.690Z,76.26
2016-12-24T03:56:56.454Z,76.16
2016-12-24T03:57:24.515Z,75.68
2016-12-24T03:57:52.421Z,75.29
2016-12-24T03:58:20.301Z,75
2016-12-24T03:58:48.069Z,75.68
2016-12-24T03:59:15.849Z,75
2016-12-24T03:59:43.652Z,75
2016-12-24T04:00:11.423Z,75
2016-12-24T04:00:39.165Z,75.29
2016-12-24T04:01:07.037Z,75.58
2016-12-24T04:01:34.767Z,76.45
2016-12-24T04:02:02.723Z,76.45
2016-12-24T04:02:30.532Z,77.71
2016-12-24T04:02:58.274Z,76.74
2016-12-24T04:03:26.050Z,77.13
2016-12-24T04:03:53.847Z,76.55
2016-12-24T04:04:21.608Z,76.55
2016-12-24T04:04:49.523Z,76.35
2016-12-24T04:05:17.293Z,76.35
2016-12-24T04:05:45.071Z,77.13
2016-12-24T04:06:12.941Z,76.45
2016-12-24T04:06:40.824Z,76.74
2016-12-24T04:07:08.771Z,76.26
2016-12-24T04:07:36.585Z,76.49
2016-12-24T04:08:04.394Z,76.35
2016-12-24T04:08:32.190Z,76.74
2016-12-24T04:08:59.968Z,77.13
2016-12-24T04:09:27.775Z,76.55
2016-12-24T04:09:55.522Z,76.29
2016-12-24T04:10:23.384Z,77.13
2016-12-24T04:10:51.164Z,77.17
2016-12-24T04:11:18.968Z,77.13
2016-12-24T04:11:46.720Z,77.51
2016-12-24T04:12:14.595Z,77.61
2016-12-24T04:12:42.411Z,77.22
2016-12-24T04:13:10.284Z,77.9
2016-12-24T04:13:38.037Z,77.8
2016-12-24T04:14:05.813Z,77.8
2016-12-24T04:14:33.579Z,77.71
2016-12-24T04:15:01.367Z,78
2016-12-24T04:15:29.160Z,77.8
2016-12-24T04:15:56.997Z,78.19
2016-12-24T04:16:24.810Z,77.96
2016-12-24T04:16:52.582Z,78.83
2016-12-24T04:17:20.590Z,78.67
2016-12-24T04:17:48.394Z,78.83
2016-12-24T04:18:16.185Z,78.44
2016-12-24T04:18:43.958Z,78.92
2016-12-24T04:19:11.836Z,78.96
2016-12-24T04:19:39.597Z,78.48
2016-12-24T04:20:07.400Z,78.92
2016-12-24T04:20:35.149Z,78.73
2016-12-24T04:21:02.944Z,78.58
2016-12-24T04:21:30.753Z,78.44
2016-12-24T04:21:58.623Z,78.54
2016-12-24T04:22:26.639Z,78.44
2016-12-24T04:22:54.542Z,78.92
2016-12-24T04:23:22.313Z,78.54
2016-12-24T04:23:50.122Z,78.54
2016-12-24T04:24:17.903Z,78.44
2016-12-24T04:24:45.708Z,78
2016-12-24T04:25:13.483Z,77.86
2016-12-24T04:25:41.265Z,77.71
2016-12-24T04:26:09.045Z,77.61
2016-12-24T04:26:36.825Z,77.71
2016-12-24T04:27:04.617Z,78
2016-12-24T04:27:32.510Z,77.9
2016-12-24T04:28:00.333Z,77.42
2016-12-24T04:28:28.114Z,77.42
2016-12-24T04:28:55.853Z,77.22
2016-12-24T04:29:23.650Z,76.93
2016-12-24T04:29:51.447Z,77.71
2016-12-24T04:30:19.225Z,77.22
2016-12-24T04:30:46.981Z,77.22
2016-12-24T04:31:14.764Z,77.51
2016-12-24T04:31:42.514Z,77.22
2016-12-24T04:32:10.304Z,77.71
2016-12-24T04:32:38.310Z,77.61
2016-12-24T04:33:06.051Z,77.9
2016-12-24T04:33:33.845Z,78.58
2016-12-24T04:34:01.657Z,78.73
2016-12-24T04:34:29.423Z,78.83
2016-12-24T04:34:57.218Z,79.31
2016-12-24T04:35:25.014Z,79.31
2016-12-24T04:35:52.803Z,79.22
2016-12-24T04:36:20.620Z,78.83
2016-12-24T04:36:48.378Z,79.12
2016-12-24T04:37:16.118Z,79.41
2016-12-24T04:37:44.105Z,79.41
2016-12-24T04:38:11.833Z,78.83
2016-12-24T04:38:39.602Z,78.83
2016-12-24T04:39:07.486Z,78.64
2016-12-24T04:39:35.321Z,78.54
2016-12-24T04:40:03.078Z,78.92
2016-12-24T04:40:30.842Z,78.54
2016-12-24T04:40:58.601Z,78.96
2016-12-24T04:41:26.417Z,78.44
2016-12-24T04:41:54.166Z,78.54
2016-12-24T04:42:21.954Z,78.48
2016-12-24T04:42:49.919Z,78.06
2016-12-24T04:43:17.703Z,77.71
2016-12-24T04:43:45.595Z,77.9
2016-12-24T04:44:13.384Z,78
2016-12-24T04:44:41.182Z,77.61
2016-12-24T04:45:08.943Z,77.42
2016-12-24T04:45:36.767Z,77.8
2016-12-24T04:46:04.551Z,77.51
2016-12-24T04:46:32.346Z,77.51
2016-12-24T04:47:00.169Z,77.8
2016-12-24T04:47:27.954Z,77.61
2016-12-24T04:47:55.879Z,77.42
2016-12-24T04:48:23.751Z,77.51
2016-12-24T04:48:51.499Z,76.93
2016-12-24T04:49:19.287Z,76.84
2016-12-24T04:49:47.060Z,77.03
2016-12-24T04:50:14.853Z,77.03
2016-12-24T04:50:42.724Z,77.22
2016-12-24T04:51:10.549Z,77.13
2016-12-24T04:51:38.329Z,77.42
2016-12-24T04:52:06.107Z,77.42
2016-12-24T04:52:33.943Z,77.9
2016-12-24T04:53:01.795Z,77.51
2016-12-24T04:53:29.590Z,77.8
2016-12-24T04:53:57.346Z,77.51
2016-12-24T04:54:25.164Z,77.67
2016-12-24T04:54:52.965Z,77.71
2016-12-24T04:55:20.753Z,77.9
2016-12-24T04:55:48.545Z,77.51
2016-12-24T04:56:16.313Z,77.22
2016-12-24T04:56:44.075Z,77.9
2016-12-24T04:57:11.972Z,77.03
2016-12-24T04:57:39.744Z,77.03
2016-12-24T04:58:07.731Z,77.22
2016-12-24T04:58:35.526Z,77.13
2016-12-24T04:59:03.317Z,77.13
2016-12-24T04:59:31.121Z,77.03
2016-12-24T04:59:58.949Z,76.84
2016-12-24T05:00:26.713Z,76.93
2016-12-24T05:00:54.532Z,77.42
2016-12-24T05:01:22.287Z,77.51
2016-12-24T05:01:50.099Z,76.64
2016-12-24T05:02:17.939Z,77.03
2016-12-24T05:02:45.685Z,77.03
2016-12-24T05:03:13.576Z,76.45
2016-12-24T05:03:41.392Z,76.55
2016-12-24T05:04:09.154Z,76.35
2016-12-24T05:04:36.905Z,76.74
2016-12-24T05:05:04.653Z,76.93
2016-12-24T05:05:32.465Z,76.55
2016-12-24T05:06:00.254Z,77.13
2016-12-24T05:06:28.020Z,77.03
2016-12-24T05:06:55.768Z,76.74
2016-12-24T05:07:23.557Z,76.74
2016-12-24T05:07:51.317Z,76.26
2016-12-24T05:08:19.177Z,76.64
2016-12-24T05:08:46.912Z,76.26
2016-12-24T05:09:14.723Z,76.55
2016-12-24T05:09:42.481Z,77.13
2016-12-24T05:10:10.426Z,77.22
2016-12-24T05:10:38.191Z,76.93
2016-12-24T05:11:05.908Z,76.74
2016-12-24T05:11:33.667Z,77.57
2016-12-24T05:12:01.432Z,77.51
2016-12-24T05:12:29.205Z,77.48
2016-12-24T05:12:56.956Z,77.86
2016-12-24T05:13:24.887Z,77.57
2016-12-24T05:13:52.676Z,77.67
2016-12-24T05:14:20.473Z,77.96
2016-12-24T05:14:48.241Z,77.57
2016-12-24T05:15:16.113Z,77.67
2016-12-24T05:15:43.894Z,77.86
2016-12-24T05:16:11.696Z,77.96
2016-12-24T05:16:39.491Z,78.06
2016-12-24T05:17:07.266Z,77.86
2016-12-24T05:17:35.060Z,77.96
2016-12-24T05:18:02.782Z,77.76
2016-12-24T05:18:30.669Z,77.48
2016-12-24T05:18:58.465Z,77.67
2016-12-24T05:19:26.398Z,77.76
2016-12-24T05:19:54.158Z,77.71
2016-12-24T05:20:21.924Z,77.57
2016-12-24T05:20:49.740Z,77.22
2016-12-24T05:21:17.529Z,77.8
2016-12-24T05:21:45.287Z,77.9
2016-12-24T05:22:13.169Z,77.67
2016-12-24T05:22:40.940Z,77.96
2016-12-24T05:23:08.712Z,77.8
2016-12-24T05:23:36.634Z,77.67
2016-12-24T05:24:04.456Z,77.86
2016-12-24T05:24:32.239Z,78.25
2016-12-24T05:25:00.017Z,78.83
2016-12-24T05:25:27.789Z,78.44
2016-12-24T05:25:55.551Z,78.44
2016-12-24T05:26:23.326Z,78.64
2016-12-24T05:26:51.084Z,78.34
2016-12-24T05:27:18.915Z,78.34
2016-12-24T05:27:46.711Z,78.64
2016-12-24T05:28:14.509Z,78.06
2016-12-24T05:28:42.419Z,77.86
2016-12-24T05:29:10.233Z,78.19
2016-12-24T05:29:37.998Z,78.25
2016-12-24T05:30:05.752Z,77.86
2016-12-24T05:30:33.523Z,77.96
2016-12-24T05:31:01.308Z,77.9
2016-12-24T05:31:29.121Z,78.54
2016-12-24T05:31:56.938Z,78.64
2016-12-24T05:32:24.715Z,78.83
2016-12-24T05:32:52.533Z,78.06
2016-12-24T05:33:20.313Z,78.06
2016-12-24T05:33:48.196Z,78.06
2016-12-24T05:34:15.962Z,77.86
2016-12-24T05:34:43.750Z,77.86
2016-12-24T05:35:11.500Z,77.86
2016-12-24T05:35:39.252Z,77.76
2016-12-24T05:36:07.007Z,77.86
2016-12-24T05:36:34.795Z,77.28
2016-12-24T05:37:02.569Z,77.09
2016-12-24T05:37:30.301Z,77.86
2016-12-24T05:37:58.068Z,77.67
2016-12-24T05:38:25.786Z,78.73
2016-12-24T05:38:53.679Z,78.44
2016-12-24T05:39:21.517Z,78.54
2016-12-24T05:39:49.295Z,79.02
2016-12-24T05:40:17.085Z,78.34
2016-12-24T05:40:44.901Z,78.44
2016-12-24T05:41:12.665Z,77.86
2016-12-24T05:41:40.498Z,77.96
2016-12-24T05:42:08.251Z,77.57
2016-12-24T05:42:36.024Z,78
2016-12-24T05:43:03.805Z,77.22
2016-12-24T05:43:31.704Z,77.51
2016-12-24T05:43:59.713Z,76.93
2016-12-24T05:44:27.545Z,76.93
2016-12-24T05:44:55.295Z,76.84
2016-12-24T05:45:23.045Z,77.13
2016-12-24T05:45:50.852Z,77.03
2016-12-24T05:46:18.614Z,77.13
2016-12-24T05:46:46.415Z,77.03
2016-12-24T05:47:14.244Z,77.03
2016-12-24T05:47:41.990Z,77.03
2016-12-24T05:48:09.791Z,77.13
2016-12-24T05:48:37.672Z,77.03
2016-12-24T05:49:05.569Z,76.8
2016-12-24T05:49:33.332Z,77.48
2016-12-24T05:50:01.139Z,77.48
2016-12-24T05:50:28.889Z,77.71
2016-12-24T05:50:56.632Z,77.76
2016-12-24T05:51:24.432Z,77.67
2016-12-24T05:51:52.789Z,77.67
2016-12-24T05:52:20.571Z,77.86
2016-12-24T05:52:48.363Z,77.86
2016-12-24T05:53:16.186Z,77.86
2016-12-24T05:53:43.963Z,77.67
2016-12-24T05:54:11.878Z,77.86
2016-12-24T05:54:39.664Z,77.38
2016-12-24T05:55:07.430Z,77.38
2016-12-24T05:55:35.325Z,77.86
2016-12-24T05:56:03.169Z,77.67
2016-12-24T05:56:30.953Z,77.67
2016-12-24T05:56:58.833Z,77.67
2016-12-24T05:57:26.620Z,77.86
2016-12-24T05:57:54.494Z,77.86
2016-12-24T05:58:22.293Z,77.86
2016-12-24T05:58:50.059Z,77.76
2016-12-24T05:59:17.934Z,77.76
2016-12-24T05:59:45.729Z,77.67
2016-12-24T06:00:13.583Z,78.15